Heathrow, Florida
Current Conditions -  °F | °C
As of 2:53 AM on Friday 19 Dec 2014 (Local Time) from KSFB Reporting Station
Clear Clear  
Wind Chill: 54°   Ceiling: Unl
Heat Index: 54°   Visibility: 10mi
Dew Point: 48°   Wind: 3mph
Humidity: 80%   Direction: 240°WSW
Pressure: 30.11"   Gusts: NA
Location:  28.7595°N, 81.3431°W
Report Text: KSFB 190753Z AUTO 24003KT 10SM CLR 12/09 A3011 RMK AO2 SLP197 T01220089
Loading
Personal Weather Stations






























Interactive Weather Map New forecast layout! Learn more

10-Day Weather Forecast

Advertisements
Track Severe Weather on mobile